createdAt,value
2018-09-26T00:00:35.723Z,92.23
2018-09-26T00:03:44.185Z,92.85
2018-09-26T00:06:48.608Z,92.69
2018-09-26T00:09:53.074Z,93.11
2018-09-26T00:12:57.536Z,93.31
2018-09-26T00:16:02.004Z,93.05
2018-09-26T00:19:06.555Z,93.43
2018-09-26T00:22:10.988Z,93.67
2018-09-26T00:25:15.455Z,93.53
2018-09-26T00:28:19.914Z,93.46
2018-09-26T00:31:24.352Z,93.56
2018-09-26T00:34:28.734Z,93.91
2018-09-26T00:37:33.129Z,93.88
2018-09-26T00:40:37.618Z,93.94
2018-09-26T00:43:42.049Z,93.64
2018-09-26T00:46:46.504Z,94.04
2018-09-26T00:49:50.990Z,94.36
2018-09-26T00:52:55.385Z,93.64
2018-09-26T00:55:59.961Z,93.89
2018-09-26T00:59:04.485Z,93.77
2018-09-26T01:02:08.854Z,93.64
2018-09-26T01:05:13.393Z,93.62
2018-09-26T01:08:17.744Z,93.36
2018-09-26T01:11:22.314Z,93.43
2018-09-26T01:14:26.762Z,93.39
2018-09-26T01:17:31.158Z,93.60
2018-09-26T01:20:35.951Z,93.92
2018-09-26T01:23:40.389Z,93.51
2018-09-26T01:26:44.806Z,94.02
2018-09-26T01:29:49.405Z,93.85
2018-09-26T01:32:53.905Z,93.84
2018-09-26T01:35:58.454Z,94.00
2018-09-26T01:39:03.034Z,94.18
2018-09-26T01:42:07.476Z,94.42
2018-09-26T01:45:12.135Z,94.53
2018-09-26T01:48:16.511Z,94.65
2018-09-26T01:51:20.928Z,94.77
2018-09-26T01:54:25.506Z,94.66
2018-09-26T01:57:29.974Z,94.69
2018-09-26T02:00:34.528Z,94.79
2018-09-26T02:03:39.061Z,94.93
2018-09-26T02:06:43.508Z,94.72
2018-09-26T02:09:47.957Z,94.39
2018-09-26T02:12:52.444Z,94.42
2018-09-26T02:15:56.891Z,94.06
2018-09-26T02:19:01.462Z,93.69
2018-09-26T02:22:05.953Z,93.91
2018-09-26T02:25:10.491Z,94.11
2018-09-26T02:28:14.960Z,94.47
2018-09-26T02:31:19.359Z,93.99
2018-09-26T02:34:23.849Z,93.67
2018-09-26T02:37:28.262Z,94.06
2018-09-26T02:40:32.733Z,94.11
2018-09-26T02:43:37.240Z,94.48
2018-09-26T02:46:41.769Z,93.92
2018-09-26T02:49:46.256Z,94.55
2018-09-26T02:52:50.711Z,94.10
2018-09-26T02:55:55.311Z,94.34
2018-09-26T02:58:59.866Z,93.82
2018-09-26T03:02:04.453Z,93.54
2018-09-26T03:05:08.997Z,93.44
2018-09-26T03:08:13.520Z,93.57
2018-09-26T03:11:18.172Z,93.54
2018-09-26T03:14:22.643Z,93.88
2018-09-26T03:17:27.238Z,94.32
2018-09-26T03:20:31.633Z,94.72
2018-09-26T03:23:36.081Z,94.54
2018-09-26T03:26:40.604Z,94.50
2018-09-26T03:29:45.031Z,95.01
2018-09-26T03:32:49.584Z,94.80
2018-09-26T03:35:53.979Z,94.57
2018-09-26T03:38:58.389Z,94.57
2018-09-26T03:42:03.008Z,94.14
2018-09-26T03:45:08.245Z,93.94
2018-09-26T03:48:12.751Z,94.42
2018-09-26T03:51:17.252Z,93.94
2018-09-26T03:54:21.810Z,94.04
2018-09-26T03:57:26.324Z,94.06
2018-09-26T04:00:30.771Z,93.88
2018-09-26T04:03:35.178Z,94.39
2018-09-26T04:06:39.794Z,93.63
2018-09-26T04:09:44.252Z,94.11
2018-09-26T04:12:49.029Z,93.61
2018-09-26T04:15:55.273Z,93.48
2018-09-26T04:18:59.720Z,94.12
2018-09-26T04:22:04.345Z,94.14
2018-09-26T04:25:08.835Z,93.66
2018-09-26T04:28:13.342Z,93.69
2018-09-26T04:31:17.945Z,93.43
2018-09-26T04:34:22.438Z,93.28
2018-09-26T04:37:26.880Z,92.61
2018-09-26T04:40:31.947Z,93.08
2018-09-26T04:43:36.426Z,93.12
2018-09-26T04:46:40.875Z,92.15
2018-09-26T04:49:45.398Z,92.47
2018-09-26T04:52:49.856Z,92.72
2018-09-26T04:55:54.302Z,93.47
2018-09-26T04:58:58.798Z,93.30
2018-09-26T05:02:03.521Z,93.46
2018-09-26T05:05:07.953Z,93.34
2018-09-26T05:08:12.415Z,92.98
2018-09-26T05:11:16.902Z,93.49
2018-09-26T05:14:21.409Z,93.00
2018-09-26T05:17:25.792Z,92.99
2018-09-26T05:20:30.200Z,93.05
2018-09-26T05:23:34.676Z,93.12
2018-09-26T05:26:39.163Z,92.59
2018-09-26T05:29:43.637Z,92.48
2018-09-26T05:32:48.115Z,91.54
2018-09-26T05:35:52.559Z,91.33
2018-09-26T05:38:56.973Z,91.19
2018-09-26T05:42:01.516Z,91.12
2018-09-26T05:45:06.065Z,91.54
2018-09-26T05:48:10.552Z,91.78
2018-09-26T05:51:15.134Z,91.12
2018-09-26T05:54:19.823Z,91.34
2018-09-26T05:57:24.232Z,90.73
2018-09-26T06:00:28.798Z,90.33
2018-09-26T06:03:33.194Z,89.08
2018-09-26T06:06:37.725Z,89.03
2018-09-26T06:09:42.264Z,89.69
2018-09-26T06:12:46.693Z,89.14
2018-09-26T06:15:51.275Z,88.54
2018-09-26T06:18:55.754Z,87.76
2018-09-26T06:22:00.191Z,87.19
2018-09-26T06:25:04.674Z,86.81
2018-09-26T06:28:09.128Z,85.79
2018-09-26T06:31:13.591Z,85.03
2018-09-26T06:34:18.093Z,85.17
2018-09-26T06:37:22.791Z,85.09
2018-09-26T06:40:27.478Z,84.01
2018-09-26T06:43:31.915Z,84.53
2018-09-26T06:46:36.415Z,84.98
2018-09-26T06:49:40.874Z,83.59
2018-09-26T06:52:45.329Z,84.30
2018-09-26T06:55:49.962Z,83.66
2018-09-26T06:58:54.417Z,81.75
2018-09-26T07:01:59.032Z,81.21
2018-09-26T07:05:03.531Z,80.08
2018-09-26T07:08:07.941Z,81.62
2018-09-26T07:11:12.331Z,79.85
2018-09-26T07:14:16.739Z,79.23
2018-09-26T07:17:21.304Z,79.01
2018-09-26T07:20:25.785Z,78.31
2018-09-26T07:23:30.177Z,76.98
2018-09-26T07:26:34.705Z,75.93
2018-09-26T07:29:39.227Z,76.00
2018-09-26T07:32:43.645Z,73.57
2018-09-26T07:35:48.108Z,71.70
2018-09-26T07:38:52.517Z,71.38
2018-09-26T07:41:57.071Z,72.19
2018-09-26T07:45:01.512Z,70.85
2018-09-26T07:48:06.472Z,69.62
2018-09-26T07:51:11.111Z,67.52
2018-09-26T07:54:15.577Z,67.74
2018-09-26T07:57:20.045Z,64.68
2018-09-26T08:00:24.649Z,66.21
2018-09-26T08:03:29.271Z,66.99
2018-09-26T08:06:33.718Z,65.18
2018-09-26T08:09:38.234Z,65.15
2018-09-26T08:12:42.801Z,65.81
2018-09-26T08:15:47.264Z,63.55
2018-09-26T08:18:51.739Z,63.11
2018-09-26T08:21:56.300Z,61.17
2018-09-26T08:25:00.897Z,60.37
2018-09-26T08:28:05.399Z,60.14
2018-09-26T08:31:09.876Z,60.08
2018-09-26T08:34:14.371Z,60.27
2018-09-26T08:37:18.855Z,60.10
2018-09-26T08:40:23.724Z,59.04
2018-09-26T08:43:28.371Z,58.15
2018-09-26T08:46:32.905Z,57.92
2018-09-26T08:49:37.426Z,57.46
2018-09-26T08:52:41.861Z,58.12
2018-09-26T08:55:46.351Z,55.59
2018-09-26T08:58:50.823Z,55.00
2018-09-26T09:01:55.290Z,55.09
2018-09-26T09:04:59.809Z,53.95
2018-09-26T09:08:04.338Z,53.58
2018-09-26T09:11:09.092Z,53.46
2018-09-26T09:14:13.580Z,53.56
2018-09-26T09:17:18.018Z,50.26
2018-09-26T09:20:22.516Z,51.96
2018-09-26T09:23:26.906Z,50.33
2018-09-26T09:26:31.430Z,50.01
2018-09-26T09:29:35.932Z,49.45
2018-09-26T09:32:40.525Z,49.46
2018-09-26T09:35:44.967Z,48.38
2018-09-26T09:38:49.527Z,47.17
2018-09-26T09:41:54.004Z,46.96
2018-09-26T09:44:58.453Z,47.83
2018-09-26T09:48:02.889Z,47.33
2018-09-26T09:51:07.423Z,45.59
2018-09-26T09:57:22.533Z,46.72
2018-09-26T10:00:32.093Z,46.78
2018-09-26T10:03:36.512Z,45.55
2018-09-26T10:06:40.961Z,44.72
2018-09-26T10:09:45.396Z,45.16
2018-09-26T10:12:49.945Z,44.04
2018-09-26T10:15:59.223Z,44.20
2018-09-26T10:19:03.805Z,44.10
2018-09-26T10:22:08.404Z,43.63
2018-09-26T10:25:12.915Z,42.06
2018-09-26T10:28:17.444Z,41.69
2018-09-26T10:31:21.964Z,41.07
2018-09-26T10:34:26.576Z,41.21
2018-09-26T10:37:31.069Z,41.49
2018-09-26T10:40:36.121Z,39.95
2018-09-26T10:43:40.561Z,41.37
2018-09-26T10:46:45.242Z,40.78
2018-09-26T10:49:50.855Z,40.51
2018-09-26T10:52:55.299Z,39.70
2018-09-26T10:55:59.870Z,39.33
2018-09-26T10:59:04.370Z,39.65
2018-09-26T11:02:08.942Z,39.10
2018-09-26T11:05:14.252Z,38.49
2018-09-26T11:08:18.828Z,39.10
2018-09-26T11:11:23.312Z,38.96
2018-09-26T11:14:27.877Z,36.16
2018-09-26T11:17:32.334Z,36.71
2018-09-26T11:20:36.861Z,37.36
2018-09-26T11:23:41.289Z,35.82
2018-09-26T11:26:45.860Z,36.14
2018-09-26T11:29:50.340Z,35.19
2018-09-26T11:32:54.948Z,34.78
2018-09-26T11:35:59.382Z,35.18
2018-09-26T11:39:05.166Z,36.06
2018-09-26T11:42:20.017Z,36.03
2018-09-26T11:45:24.633Z,36.69
2018-09-26T11:49:00.045Z,35.52
2018-09-26T11:52:04.767Z,36.65
2018-09-26T11:55:09.354Z,37.04
2018-09-26T11:58:13.884Z,35.48
2018-09-26T12:01:18.404Z,35.51
2018-09-26T12:04:22.989Z,35.14
2018-09-26T12:07:27.512Z,36.03
2018-09-26T12:10:32.075Z,36.13
2018-09-26T12:13:36.581Z,35.62
2018-09-26T12:16:41.113Z,35.32
2018-09-26T12:19:45.979Z,35.18
2018-09-26T12:22:54.360Z,34.43
2018-09-26T12:25:58.810Z,34.22
2018-09-26T12:29:03.294Z,34.56
2018-09-26T12:32:08.229Z,34.17
2018-09-26T12:35:12.712Z,35.52
2018-09-26T12:38:17.158Z,35.74
2018-09-26T12:41:21.641Z,35.09
2018-09-26T12:44:26.221Z,35.03
2018-09-26T12:47:30.778Z,33.94
2018-09-26T12:50:35.760Z,34.08
2018-09-26T12:53:40.319Z,34.67
2018-09-26T12:56:44.760Z,34.79
2018-09-26T12:59:49.216Z,34.72
2018-09-26T13:02:53.732Z,34.26
2018-09-26T13:05:58.455Z,34.96
2018-09-26T13:09:03.001Z,34.59
2018-09-26T13:12:07.556Z,33.99
2018-09-26T13:15:12.179Z,34.04
2018-09-26T13:18:25.338Z,34.23
2018-09-26T13:21:30.382Z,34.44
2018-09-26T13:24:34.957Z,34.11
2018-09-26T13:27:39.429Z,34.26
2018-09-26T13:30:44.207Z,33.74
2018-09-26T13:33:48.671Z,34.31
2018-09-26T13:36:56.807Z,33.69
2018-09-26T13:40:01.309Z,34.57
2018-09-26T13:43:05.866Z,35.41
2018-09-26T13:46:10.485Z,34.44
2018-09-26T13:49:15.101Z,34.91
2018-09-26T13:52:19.672Z,35.27
2018-09-26T13:55:24.136Z,34.55
2018-09-26T13:58:28.934Z,35.27
2018-09-26T14:01:33.542Z,35.80
2018-09-26T14:04:38.684Z,35.59
2018-09-26T14:07:43.317Z,36.95
2018-09-26T14:10:47.934Z,36.48
2018-09-26T14:13:52.458Z,36.51
2018-09-26T14:16:56.930Z,37.25
2018-09-26T14:20:02.059Z,36.72
2018-09-26T14:23:06.693Z,37.50
2018-09-26T14:26:11.171Z,36.87
2018-09-26T14:29:15.772Z,36.73
2018-09-26T14:32:20.466Z,38.08
2018-09-26T14:35:25.096Z,38.29
2018-09-26T14:38:30.215Z,39.91
2018-09-26T14:41:34.906Z,40.39
2018-09-26T14:44:40.666Z,39.96
2018-09-26T14:47:46.718Z,39.51
2018-09-26T14:50:51.355Z,39.01
2018-09-26T14:53:56.015Z,38.94
2018-09-26T14:57:00.653Z,39.03
2018-09-26T15:00:05.331Z,39.47
2018-09-26T15:03:09.815Z,41.18
2018-09-26T15:06:14.292Z,41.53
2018-09-26T15:09:18.682Z,40.74
2018-09-26T15:12:23.229Z,43.04
2018-09-26T15:15:27.814Z,41.71
2018-09-26T15:18:32.327Z,42.64
2018-09-26T15:21:37.041Z,42.01
2018-09-26T15:24:41.483Z,41.86
2018-09-26T15:27:46.221Z,42.74
2018-09-26T15:30:50.844Z,42.76
2018-09-26T15:33:56.520Z,42.31
2018-09-26T15:37:00.972Z,42.22
2018-09-26T15:40:05.650Z,44.21
2018-09-26T15:43:10.310Z,45.65
2018-09-26T15:46:14.881Z,44.70
2018-09-26T15:49:19.274Z,46.06
2018-09-26T15:52:23.989Z,46.19
2018-09-26T15:55:28.458Z,47.13
2018-09-26T15:58:33.007Z,47.40
2018-09-26T16:01:37.576Z,47.97
2018-09-26T16:04:42.213Z,47.88
2018-09-26T16:07:46.695Z,49.21
2018-09-26T16:10:51.198Z,49.07
2018-09-26T16:13:55.878Z,49.08
2018-09-26T16:17:00.304Z,49.61
2018-09-26T16:20:05.015Z,50.75
2018-09-26T16:23:09.650Z,49.73
2018-09-26T16:26:20.404Z,49.92
2018-09-26T16:29:24.853Z,52.28
2018-09-26T16:32:29.450Z,52.59
2018-09-26T16:35:34.109Z,55.06
2018-09-26T16:38:38.563Z,54.66
2018-09-26T16:41:44.169Z,56.11
2018-09-26T16:44:48.689Z,55.77
2018-09-26T16:47:53.224Z,58.38
2018-09-26T16:50:57.812Z,58.74
2018-09-26T16:54:03.525Z,60.31
2018-09-26T16:57:08.113Z,61.17
2018-09-26T17:00:12.915Z,62.05
2018-09-26T17:03:17.340Z,62.90
2018-09-26T17:06:22.185Z,63.18
2018-09-26T17:09:31.284Z,64.54
2018-09-26T17:12:35.836Z,65.28
2018-09-26T17:15:42.861Z,66.47
2018-09-26T17:18:47.711Z,67.49
2018-09-26T17:21:52.243Z,68.69
2018-09-26T17:24:56.719Z,67.04
2018-09-26T17:28:01.159Z,65.96
2018-09-26T17:31:05.677Z,65.63
2018-09-26T17:34:10.240Z,66.28
2018-09-26T17:37:14.678Z,66.50
2018-09-26T17:40:19.265Z,67.49
2018-09-26T17:43:23.738Z,68.79
2018-09-26T17:46:28.265Z,70.95
2018-09-26T17:49:32.908Z,70.24
2018-09-26T17:52:37.356Z,71.00
2018-09-26T17:55:43.203Z,70.52
2018-09-26T17:58:47.735Z,71.95
2018-09-26T18:01:52.380Z,72.28
2018-09-26T18:04:56.796Z,72.80
2018-09-26T18:08:01.367Z,73.40
2018-09-26T18:11:05.910Z,73.73
2018-09-26T18:14:10.389Z,74.49
2018-09-26T18:17:14.933Z,74.95
2018-09-26T18:20:19.536Z,74.57
2018-09-26T18:23:24.923Z,73.90
2018-09-26T18:26:29.437Z,73.93
2018-09-26T18:29:34.753Z,75.22
2018-09-26T18:32:39.272Z,75.65
2018-09-26T18:35:43.914Z,76.46
2018-09-26T18:38:48.443Z,77.97
2018-09-26T18:41:53.048Z,78.78
2018-09-26T18:44:57.697Z,77.95
2018-09-26T18:48:02.203Z,78.71
2018-09-26T18:51:06.870Z,79.21
2018-09-26T18:54:11.270Z,80.17
2018-09-26T18:57:15.897Z,80.08
2018-09-26T19:00:20.389Z,80.23
2018-09-26T19:03:24.845Z,80.48
2018-09-26T19:06:29.583Z,81.22
2018-09-26T19:09:34.103Z,80.54
2018-09-26T19:12:38.600Z,80.90
2018-09-26T19:15:43.279Z,80.51
2018-09-26T19:18:48.154Z,79.92
2018-09-26T19:21:52.686Z,81.19
2018-09-26T19:24:57.222Z,82.68
2018-09-26T19:28:02.066Z,82.85
2018-09-26T19:31:06.617Z,83.03
2018-09-26T19:34:11.468Z,82.74
2018-09-26T19:37:16.172Z,82.56
2018-09-26T19:40:20.831Z,81.86
2018-09-26T19:43:25.330Z,82.30
2018-09-26T19:46:29.959Z,82.65
2018-09-26T19:49:34.574Z,81.91
2018-09-26T19:52:39.207Z,81.43
2018-09-26T19:55:43.943Z,82.71
2018-09-26T19:58:48.572Z,83.10
2018-09-26T20:01:53.575Z,84.12
2018-09-26T20:04:58.028Z,83.75
2018-09-26T20:08:02.460Z,83.59
2018-09-26T20:11:06.833Z,83.49
2018-09-26T20:14:11.432Z,83.17
2018-09-26T20:17:15.901Z,83.34
2018-09-26T20:20:20.474Z,82.59
2018-09-26T20:23:25.095Z,82.65
2018-09-26T20:26:29.792Z,82.66
2018-09-26T20:29:34.809Z,83.30
2018-09-26T20:32:39.264Z,83.77
2018-09-26T20:35:44.075Z,84.31
2018-09-26T20:38:48.802Z,84.98
2018-09-26T20:41:53.402Z,85.85
2018-09-26T20:44:58.020Z,85.89
2018-09-26T20:48:02.745Z,85.12
2018-09-26T20:51:07.442Z,86.20
2018-09-26T20:54:12.042Z,86.86
2018-09-26T20:57:16.539Z,86.14
2018-09-26T21:00:21.124Z,85.43
2018-09-26T21:03:25.649Z,85.79
2018-09-26T21:06:30.271Z,85.39
2018-09-26T21:09:34.744Z,85.62
2018-09-26T21:12:39.334Z,86.55
2018-09-26T21:15:43.887Z,87.51
2018-09-26T21:18:48.408Z,87.34
2018-09-26T21:21:52.981Z,88.02
2018-09-26T21:24:57.469Z,87.82
2018-09-26T21:28:01.990Z,86.71
2018-09-26T21:31:06.622Z,86.67
2018-09-26T21:34:11.467Z,86.49
2018-09-26T21:37:16.025Z,87.10
2018-09-26T21:40:20.584Z,87.41
2018-09-26T21:43:25.289Z,87.95
2018-09-26T21:46:29.866Z,87.64
2018-09-26T21:49:34.400Z,87.20
2018-09-26T21:52:38.992Z,87.86
2018-09-26T21:55:43.791Z,87.83
2018-09-26T21:58:48.508Z,87.89
2018-09-26T22:01:53.313Z,88.20
2018-09-26T22:04:57.879Z,88.66
2018-09-26T22:08:02.399Z,88.81
2018-09-26T22:11:06.988Z,89.07
2018-09-26T22:14:11.458Z,88.64
2018-09-26T22:17:16.069Z,89.35
2018-09-26T22:20:20.756Z,88.93
2018-09-26T22:23:25.626Z,89.21
2018-09-26T22:26:30.117Z,88.86
2018-09-26T22:29:34.641Z,88.08
2018-09-26T22:32:39.249Z,87.91
2018-09-26T22:35:44.093Z,88.11
2018-09-26T22:38:49.748Z,87.95
2018-09-26T22:41:54.328Z,88.16
2018-09-26T22:44:58.876Z,88.69
2018-09-26T22:48:04.193Z,88.63
2018-09-26T22:51:08.659Z,89.05
2018-09-26T22:54:14.083Z,88.60
2018-09-26T22:57:18.659Z,88.77
2018-09-26T23:00:23.157Z,89.46
2018-09-26T23:03:28.947Z,89.60
2018-09-26T23:06:33.535Z,89.71
2018-09-26T23:09:38.377Z,89.49
2018-09-26T23:12:42.890Z,89.84
2018-09-26T23:15:47.454Z,89.64
2018-09-26T23:18:52.025Z,90.31
2018-09-26T23:21:56.516Z,90.46
2018-09-26T23:25:01.226Z,90.59
2018-09-26T23:28:05.805Z,90.34
2018-09-26T23:31:10.359Z,90.06
2018-09-26T23:34:14.810Z,90.36
2018-09-26T23:37:19.328Z,90.43
2018-09-26T23:40:23.811Z,90.39
2018-09-26T23:43:28.248Z,89.99
2018-09-26T23:46:34.044Z,89.25
2018-09-26T23:49:38.463Z,89.49
2018-09-26T23:52:42.894Z,89.97
2018-09-26T23:55:47.337Z,90.44
2018-09-26T23:58:51.846Z,91.08
